createdAt,value
2017-05-29T00:00:11.106Z,14
2017-05-29T00:01:29.788Z,14
2017-05-29T00:02:48.461Z,13.9
2017-05-29T00:04:07.130Z,13.9
2017-05-29T00:05:25.802Z,13.9
2017-05-29T00:06:44.497Z,13.9
2017-05-29T00:08:03.162Z,13.9
2017-05-29T00:09:21.835Z,13.9
2017-05-29T00:10:40.554Z,13.9
2017-05-29T00:11:59.247Z,13.9
2017-05-29T00:13:17.936Z,13.9
2017-05-29T00:14:36.600Z,13.9
2017-05-29T00:15:55.316Z,13.9
2017-05-29T00:17:14.024Z,13.9
2017-05-29T00:18:32.694Z,13.9
2017-05-29T00:19:51.353Z,13.9
2017-05-29T00:21:10.047Z,13.9
2017-05-29T00:22:28.791Z,13.9
2017-05-29T00:23:47.461Z,13.9
2017-05-29T00:25:06.136Z,13.9
2017-05-29T00:26:24.828Z,13.9
2017-05-29T00:27:43.544Z,13.9
2017-05-29T00:29:02.209Z,13.9
2017-05-29T00:30:20.881Z,13.9
2017-05-29T00:31:39.571Z,13.9
2017-05-29T00:32:58.246Z,13.9
2017-05-29T00:34:16.924Z,13.9
2017-05-29T00:35:35.609Z,13.8
2017-05-29T00:36:54.281Z,13.8
2017-05-29T00:38:13.013Z,13.8
2017-05-29T00:39:31.689Z,13.8
2017-05-29T00:40:50.372Z,13.8
2017-05-29T00:42:09.093Z,13.8
2017-05-29T00:43:27.772Z,13.7
2017-05-29T00:44:46.443Z,13.7
2017-05-29T00:46:05.159Z,13.7
2017-05-29T00:47:23.911Z,13.7
2017-05-29T00:48:42.588Z,13.7
2017-05-29T00:50:01.356Z,13.7
2017-05-29T00:51:20.048Z,13.7
2017-05-29T00:52:38.780Z,13.6
2017-05-29T00:53:57.515Z,13.6
2017-05-29T00:55:16.180Z,13.6
2017-05-29T00:56:34.844Z,13.6
2017-05-29T00:57:53.556Z,13.6
2017-05-29T00:59:12.228Z,13.6
2017-05-29T01:00:30.897Z,13.6
2017-05-29T01:01:49.566Z,13.5
2017-05-29T01:03:08.283Z,13.5
2017-05-29T01:04:26.960Z,13.5
2017-05-29T01:05:45.655Z,13.5
2017-05-29T01:07:04.334Z,13.5
2017-05-29T01:08:23.041Z,13.5
2017-05-29T01:09:41.737Z,13.5
2017-05-29T01:11:00.426Z,13.4
2017-05-29T01:12:19.128Z,13.4
2017-05-29T01:13:37.809Z,13.4
2017-05-29T01:14:56.542Z,13.4
2017-05-29T01:16:15.237Z,13.4
2017-05-29T01:17:33.942Z,13.4
2017-05-29T01:18:52.605Z,13.4
2017-05-29T01:20:11.282Z,13.4
2017-05-29T01:21:30.006Z,13.4
2017-05-29T01:22:48.732Z,13.4
2017-05-29T01:24:07.441Z,13.4
2017-05-29T01:25:26.112Z,13.4
2017-05-29T01:26:44.781Z,13.4
2017-05-29T01:28:03.450Z,13.4
2017-05-29T01:29:22.122Z,13.3
2017-05-29T01:30:40.813Z,13.3
2017-05-29T01:31:59.534Z,13.4
2017-05-29T01:33:18.205Z,13.4
2017-05-29T01:34:36.903Z,13.3
2017-05-29T01:35:55.586Z,13.3
2017-05-29T01:37:14.255Z,13.4
2017-05-29T01:38:32.927Z,13.4
2017-05-29T01:39:51.619Z,13.4
2017-05-29T01:41:10.331Z,13.4
2017-05-29T01:42:29.073Z,13.4
2017-05-29T01:43:47.744Z,13.3
2017-05-29T01:45:06.407Z,13.3
2017-05-29T01:46:25.117Z,13.3
2017-05-29T01:47:43.803Z,13.4
2017-05-29T01:49:02.520Z,13.3
2017-05-29T01:50:21.192Z,13.3
2017-05-29T01:51:39.885Z,13.3
2017-05-29T01:52:58.569Z,13.3
2017-05-29T01:54:17.244Z,13.3
2017-05-29T01:55:35.933Z,13.3
2017-05-29T01:56:54.622Z,13.3
2017-05-29T01:58:13.302Z,13.3
2017-05-29T01:59:31.969Z,13.3
2017-05-29T02:00:50.637Z,13.3
2017-05-29T02:02:09.310Z,13.2
2017-05-29T02:03:27.984Z,13.2
2017-05-29T02:04:46.707Z,13.2
2017-05-29T02:06:05.428Z,13.2
2017-05-29T02:07:24.136Z,13.2
2017-05-29T02:08:42.822Z,13.2
2017-05-29T02:10:01.493Z,13.2
2017-05-29T02:11:20.166Z,13.2
2017-05-29T02:12:38.880Z,13.1
2017-05-29T02:13:57.563Z,13.1
2017-05-29T02:15:16.229Z,13.1
2017-05-29T02:16:34.955Z,13.1
2017-05-29T02:17:53.629Z,13.1
2017-05-29T02:19:12.355Z,13.1
2017-05-29T02:20:31.039Z,13
2017-05-29T02:21:49.713Z,13
2017-05-29T02:23:08.380Z,13
2017-05-29T02:24:27.051Z,13
2017-05-29T02:25:45.732Z,13
2017-05-29T02:27:04.419Z,13
2017-05-29T02:28:23.156Z,13
2017-05-29T02:29:41.835Z,13
2017-05-29T02:31:00.557Z,13
2017-05-29T02:32:19.225Z,12.9
2017-05-29T02:33:37.936Z,12.9
2017-05-29T02:34:56.603Z,12.9
2017-05-29T02:36:15.323Z,12.9
2017-05-29T02:37:34.028Z,12.9
2017-05-29T02:38:52.710Z,13
2017-05-29T02:40:11.379Z,12.9
2017-05-29T02:41:30.063Z,12.9
2017-05-29T02:42:48.749Z,12.9
2017-05-29T02:44:07.449Z,13
2017-05-29T02:45:26.125Z,13
2017-05-29T02:46:44.790Z,13
2017-05-29T02:48:03.453Z,13
2017-05-29T02:49:22.138Z,13
2017-05-29T02:50:40.798Z,13
2017-05-29T02:51:59.516Z,13
2017-05-29T02:53:18.198Z,13.1
2017-05-29T02:54:36.878Z,13.1
2017-05-29T02:55:55.567Z,13.2
2017-05-29T02:57:14.236Z,13.2
2017-05-29T02:58:32.916Z,13.2
2017-05-29T02:59:51.659Z,13.3
2017-05-29T03:01:10.367Z,13.3
2017-05-29T03:02:29.070Z,13.3
2017-05-29T03:03:47.738Z,13.3
2017-05-29T03:05:06.416Z,13.4
2017-05-29T03:06:25.082Z,13.4
2017-05-29T03:07:43.809Z,13.4
2017-05-29T03:09:02.500Z,13.4
2017-05-29T03:10:21.182Z,13.4
2017-05-29T03:11:39.851Z,13.4
2017-05-29T03:12:58.568Z,13.4
2017-05-29T03:14:17.266Z,13.3
2017-05-29T03:15:35.963Z,13.3
2017-05-29T03:16:54.638Z,13.3
2017-05-29T03:18:13.334Z,13.3
2017-05-29T03:19:32.018Z,13.2
2017-05-29T03:20:50.695Z,13.2
2017-05-29T03:22:09.377Z,13.2
2017-05-29T03:23:28.083Z,13.2
2017-05-29T03:24:46.745Z,13.2
2017-05-29T03:26:05.413Z,13.2
2017-05-29T03:27:24.107Z,13.3
2017-05-29T03:28:42.783Z,13.2
2017-05-29T03:30:01.452Z,13.2
2017-05-29T03:31:20.130Z,13.2
2017-05-29T03:32:38.854Z,13.2
2017-05-29T03:33:57.554Z,13.2
2017-05-29T03:35:16.276Z,13.2
2017-05-29T03:36:34.984Z,13.2
2017-05-29T03:37:53.654Z,13.2
2017-05-29T03:39:12.401Z,13.2
2017-05-29T03:40:31.067Z,13.3
2017-05-29T03:41:49.751Z,13.3
2017-05-29T03:43:08.428Z,13.3
2017-05-29T03:44:27.100Z,13.3
2017-05-29T03:45:45.833Z,13.3
2017-05-29T03:47:04.578Z,13.4
2017-05-29T03:48:23.294Z,13.4
2017-05-29T03:49:42.012Z,13.4
2017-05-29T03:51:00.683Z,13.5
2017-05-29T03:52:19.371Z,13.6
2017-05-29T03:53:38.037Z,13.7
2017-05-29T03:54:56.704Z,13.7
2017-05-29T03:56:15.372Z,13.8
2017-05-29T03:57:34.078Z,13.9
2017-05-29T03:58:52.753Z,13.9
2017-05-29T04:00:11.481Z,14
2017-05-29T04:01:30.163Z,14.2
2017-05-29T04:02:48.851Z,14.2
2017-05-29T04:04:07.562Z,14.3
2017-05-29T04:05:26.286Z,14.4
2017-05-29T04:06:45.006Z,14.4
2017-05-29T04:08:03.730Z,14.5
2017-05-29T04:09:22.432Z,14.7
2017-05-29T04:10:41.160Z,14.8
2017-05-29T04:11:59.826Z,15
2017-05-29T04:13:18.545Z,15
2017-05-29T04:14:37.212Z,15.2
2017-05-29T04:15:55.882Z,15.3
2017-05-29T04:17:14.585Z,15.4
2017-05-29T04:18:33.308Z,15.5
2017-05-29T04:19:51.979Z,15.7
2017-05-29T04:21:10.683Z,15.8
2017-05-29T04:22:29.355Z,15.9
2017-05-29T04:23:48.079Z,16
2017-05-29T04:25:06.745Z,16.1
2017-05-29T04:26:25.469Z,16.2
2017-05-29T04:27:44.168Z,16.3
2017-05-29T04:29:02.875Z,16.4
2017-05-29T04:30:21.560Z,16.6
2017-05-29T04:31:40.231Z,16.8
2017-05-29T04:32:58.969Z,16.9
2017-05-29T04:34:17.654Z,17.1
2017-05-29T04:35:36.335Z,17.2
2017-05-29T04:36:55.005Z,17.3
2017-05-29T04:38:13.673Z,17.4
2017-05-29T04:39:32.405Z,17.5
2017-05-29T04:40:51.095Z,17.6
2017-05-29T04:42:09.770Z,17.8
2017-05-29T04:43:28.431Z,18
2017-05-29T04:44:47.116Z,18.1
2017-05-29T04:46:05.776Z,18.3
2017-05-29T04:47:24.496Z,18.4
2017-05-29T04:48:43.224Z,18.5
2017-05-29T04:50:01.921Z,18.6
2017-05-29T04:51:20.589Z,18.8
2017-05-29T04:52:39.282Z,18.8
2017-05-29T04:53:57.957Z,18.8
2017-05-29T04:55:16.630Z,18.9
2017-05-29T04:56:35.320Z,18.9
2017-05-29T04:57:54.012Z,18.9
2017-05-29T04:59:12.688Z,18.8
2017-05-29T05:00:31.362Z,18.8
2017-05-29T05:01:50.031Z,18.7
2017-05-29T05:03:08.740Z,18.7
2017-05-29T05:04:27.440Z,18.7
2017-05-29T05:05:46.165Z,18.7
2017-05-29T05:07:04.841Z,18.6
2017-05-29T05:08:23.557Z,18.6
2017-05-29T05:09:42.275Z,18.6
2017-05-29T05:11:00.952Z,18.6
2017-05-29T05:12:19.619Z,18.6
2017-05-29T05:13:38.291Z,18.6
2017-05-29T05:14:56.961Z,18.6
2017-05-29T05:16:15.643Z,18.6
2017-05-29T05:17:34.344Z,18.6
2017-05-29T05:18:53.014Z,18.6
2017-05-29T05:20:11.690Z,18.6
2017-05-29T05:21:30.384Z,18.7
2017-05-29T05:22:49.085Z,18.8
2017-05-29T05:24:07.766Z,18.9
2017-05-29T05:25:26.439Z,19
2017-05-29T05:26:45.118Z,19.1
2017-05-29T05:28:03.800Z,19.2
2017-05-29T05:29:22.469Z,19.2
2017-05-29T05:30:41.181Z,19.2
2017-05-29T05:31:59.875Z,19.2
2017-05-29T05:33:18.559Z,19.3
2017-05-29T05:34:37.287Z,19.3
2017-05-29T05:35:55.987Z,19.3
2017-05-29T05:37:14.689Z,19.3
2017-05-29T05:38:33.357Z,19.4
2017-05-29T05:39:52.082Z,19.4
2017-05-29T05:41:10.800Z,19.5
2017-05-29T05:42:29.490Z,19.5
2017-05-29T05:43:48.165Z,19.5
2017-05-29T05:45:06.895Z,19.6
2017-05-29T05:46:25.606Z,19.7
2017-05-29T05:47:44.298Z,19.8
2017-05-29T05:49:02.970Z,19.8
2017-05-29T05:50:21.642Z,19.9
2017-05-29T05:51:40.374Z,19.9
2017-05-29T05:52:59.092Z,19.9
2017-05-29T05:54:17.776Z,19.9
2017-05-29T05:55:36.460Z,19.9
2017-05-29T05:56:55.149Z,19.9
2017-05-29T05:58:13.878Z,20
2017-05-29T05:59:32.563Z,20
2017-05-29T06:00:51.229Z,20
2017-05-29T06:02:09.951Z,20
2017-05-29T06:03:28.626Z,20.1
2017-05-29T06:04:47.300Z,20.1
2017-05-29T06:06:05.973Z,20.2
2017-05-29T06:07:24.659Z,20.3
2017-05-29T06:08:43.386Z,20.4
2017-05-29T06:10:02.111Z,20.4
2017-05-29T06:11:20.779Z,20.5
2017-05-29T06:12:39.483Z,20.5
2017-05-29T06:13:58.157Z,20.5
2017-05-29T06:15:16.828Z,20.6
2017-05-29T06:16:35.497Z,20.7
2017-05-29T06:17:54.205Z,20.8
2017-05-29T06:19:12.942Z,20.9
2017-05-29T06:20:31.609Z,20.9
2017-05-29T06:21:50.327Z,21
2017-05-29T06:23:09.041Z,21.2
2017-05-29T06:24:27.710Z,21.2
2017-05-29T06:25:46.383Z,21.3
2017-05-29T06:27:05.107Z,21.4
2017-05-29T06:28:23.822Z,21.4
2017-05-29T06:29:42.553Z,21.5
2017-05-29T06:31:01.230Z,21.6
2017-05-29T06:32:19.902Z,21.7
2017-05-29T06:33:38.571Z,21.7
2017-05-29T06:34:57.283Z,21.7
2017-05-29T06:36:15.952Z,21.8
2017-05-29T06:37:34.643Z,21.8
2017-05-29T06:38:53.306Z,21.8
2017-05-29T06:40:12.008Z,21.7
2017-05-29T06:41:30.675Z,21.7
2017-05-29T06:42:49.362Z,21.7
2017-05-29T06:44:08.037Z,21.7
2017-05-29T06:45:26.736Z,21.7
2017-05-29T06:46:45.399Z,21.8
2017-05-29T06:48:04.115Z,21.8
2017-05-29T06:49:22.796Z,21.9
2017-05-29T06:50:41.498Z,22
2017-05-29T06:52:00.216Z,22.1
2017-05-29T06:53:18.918Z,22.2
2017-05-29T06:54:37.588Z,22.3
2017-05-29T06:55:56.266Z,22.4
2017-05-29T06:57:14.935Z,22.4
2017-05-29T06:58:33.612Z,22.6
2017-05-29T06:59:52.365Z,22.7
2017-05-29T07:01:11.094Z,22.7
2017-05-29T07:02:29.764Z,22.9
2017-05-29T07:03:48.467Z,22.9
2017-05-29T07:05:07.143Z,23
2017-05-29T07:06:25.834Z,23.1
2017-05-29T07:07:44.560Z,23.2
2017-05-29T07:09:03.284Z,23.2
2017-05-29T07:10:21.960Z,23.3
2017-05-29T07:11:40.634Z,23.4
2017-05-29T07:12:59.307Z,23.5
2017-05-29T07:14:17.982Z,23.6
2017-05-29T07:15:36.674Z,23.7
2017-05-29T07:16:55.383Z,23.8
2017-05-29T07:18:14.075Z,23.8
2017-05-29T07:19:32.749Z,23.7
2017-05-29T07:20:51.442Z,23.7
2017-05-29T07:22:10.123Z,23.7
2017-05-29T07:23:28.809Z,23.7
2017-05-29T07:24:47.469Z,23.7
2017-05-29T07:26:06.136Z,23.6
2017-05-29T07:27:24.836Z,23.6
2017-05-29T07:28:43.553Z,23.5
2017-05-29T07:30:02.245Z,23.5
2017-05-29T07:31:20.990Z,23.5
2017-05-29T07:32:39.725Z,23.6
2017-05-29T07:33:58.403Z,23.6
2017-05-29T07:35:17.113Z,23.7
2017-05-29T07:36:35.784Z,23.8
2017-05-29T07:37:54.447Z,23.9
2017-05-29T07:39:13.164Z,24
2017-05-29T07:40:31.831Z,24.1
2017-05-29T07:41:50.503Z,24.2
2017-05-29T07:43:09.226Z,24.4
2017-05-29T07:44:27.898Z,24.4
2017-05-29T07:45:46.611Z,24.5
2017-05-29T07:47:05.350Z,24.7
2017-05-29T07:48:24.074Z,24.8
2017-05-29T07:49:42.752Z,24.9
2017-05-29T07:51:01.454Z,25
2017-05-29T07:52:20.128Z,25.2
2017-05-29T07:53:38.840Z,25.4
2017-05-29T07:54:57.557Z,25.4
2017-05-29T07:56:16.257Z,25.4
2017-05-29T07:57:34.929Z,25.5
2017-05-29T07:58:53.627Z,25.5
2017-05-29T08:00:12.349Z,25.4
2017-05-29T08:01:31.028Z,25.4
2017-05-29T08:02:49.703Z,25.3
2017-05-29T08:04:08.452Z,25.2
2017-05-29T08:05:27.123Z,25
2017-05-29T08:06:45.825Z,24.9
2017-05-29T08:08:04.495Z,24.8
2017-05-29T08:09:23.234Z,24.7
2017-05-29T08:10:41.960Z,24.6
2017-05-29T08:12:00.627Z,24.6
2017-05-29T08:13:19.297Z,24.5
2017-05-29T08:14:37.979Z,24.5
2017-05-29T08:15:56.664Z,24.5
2017-05-29T08:17:15.332Z,24.5
2017-05-29T08:18:34.043Z,24.5
2017-05-29T08:19:52.795Z,24.5
2017-05-29T08:21:11.500Z,24.5
2017-05-29T08:22:30.200Z,24.5
2017-05-29T08:23:48.934Z,24.5
2017-05-29T08:25:07.623Z,24.5
2017-05-29T08:26:26.294Z,24.6
2017-05-29T08:27:45.018Z,24.8
2017-05-29T08:29:03.730Z,25
2017-05-29T08:30:22.444Z,25
2017-05-29T08:31:41.109Z,25.1
2017-05-29T08:32:59.836Z,25.3
2017-05-29T08:34:18.585Z,25.4
2017-05-29T08:35:37.316Z,25.6
2017-05-29T08:36:55.982Z,25.8
2017-05-29T08:38:14.653Z,25.9
2017-05-29T08:39:33.369Z,26
2017-05-29T08:40:52.062Z,26.1
2017-05-29T08:42:10.731Z,26.1
2017-05-29T08:43:29.445Z,26.2
2017-05-29T08:44:48.110Z,26.3
2017-05-29T08:46:06.788Z,26.1
2017-05-29T08:47:25.473Z,26
2017-05-29T08:48:44.159Z,26
2017-05-29T08:50:02.847Z,26.2
2017-05-29T08:51:21.580Z,26.3
2017-05-29T08:52:40.249Z,26.5
2017-05-29T08:53:59.000Z,26.6
2017-05-29T08:55:17.669Z,26.8
2017-05-29T08:56:36.378Z,27.1
2017-05-29T08:57:55.041Z,27.4
2017-05-29T08:59:13.720Z,27.6
2017-05-29T09:00:32.413Z,27.9
2017-05-29T09:01:51.142Z,28.2
2017-05-29T09:03:09.856Z,28.5
2017-05-29T09:04:28.559Z,28.7
2017-05-29T09:05:47.234Z,29
2017-05-29T09:07:05.925Z,29.4
2017-05-29T09:08:24.597Z,29.9
2017-05-29T09:09:43.306Z,30.3
2017-05-29T09:11:01.964Z,30.5
2017-05-29T09:12:20.664Z,30.3
2017-05-29T09:13:39.382Z,29.7
2017-05-29T09:14:58.057Z,29
2017-05-29T09:16:16.762Z,28.4
2017-05-29T09:17:35.449Z,27.9
2017-05-29T09:18:54.165Z,27.4
2017-05-29T09:20:12.856Z,27.2
2017-05-29T09:21:31.570Z,27.1
2017-05-29T09:22:50.264Z,27.1
2017-05-29T09:24:08.960Z,27.2
2017-05-29T09:25:27.625Z,27.3
2017-05-29T09:26:46.298Z,27.8
2017-05-29T09:28:04.973Z,28.3
2017-05-29T09:29:23.682Z,28.9
2017-05-29T09:30:42.395Z,29.4
2017-05-29T09:32:01.107Z,29.8
2017-05-29T09:33:19.823Z,30
2017-05-29T09:34:38.524Z,29.9
2017-05-29T09:35:57.199Z,29.9
2017-05-29T09:37:15.876Z,29.9
2017-05-29T09:38:34.589Z,29.9
2017-05-29T09:39:53.306Z,30
2017-05-29T09:41:11.969Z,30
2017-05-29T09:42:30.636Z,30.2
2017-05-29T09:43:49.354Z,30.5
2017-05-29T09:45:08.026Z,30.7
2017-05-29T09:46:26.724Z,30.8
2017-05-29T09:47:45.420Z,30.6
2017-05-29T09:49:04.130Z,30.2
2017-05-29T09:50:22.861Z,29.8
2017-05-29T09:51:41.574Z,29.5
2017-05-29T09:53:00.295Z,29.1
2017-05-29T09:54:19.019Z,28.8
2017-05-29T09:55:37.689Z,28.6
2017-05-29T09:56:56.360Z,28.5
2017-05-29T09:58:15.067Z,28.3
2017-05-29T09:59:33.743Z,28.3
2017-05-29T10:00:52.464Z,28.5
2017-05-29T10:02:11.131Z,28.5
2017-05-29T10:03:29.795Z,28.5
2017-05-29T10:04:48.486Z,28.5
2017-05-29T10:06:07.157Z,28.5
2017-05-29T10:07:25.882Z,28.4
2017-05-29T10:08:44.611Z,28.5
2017-05-29T10:10:03.324Z,28.5
2017-05-29T10:11:21.994Z,28.6
2017-05-29T10:12:40.695Z,28.7
2017-05-29T10:13:59.410Z,28.8
2017-05-29T10:15:18.103Z,28.8
2017-05-29T10:16:36.822Z,28.9
2017-05-29T10:17:55.488Z,29
2017-05-29T10:19:14.170Z,29.1
2017-05-29T10:20:32.847Z,29.1
2017-05-29T10:21:51.561Z,29.1
2017-05-29T10:23:10.285Z,29.1
2017-05-29T10:24:29.000Z,29.1
2017-05-29T10:25:47.725Z,29.1
2017-05-29T10:27:06.407Z,29.1
2017-05-29T10:28:25.081Z,29
2017-05-29T10:29:43.756Z,29
2017-05-29T10:31:02.456Z,29
2017-05-29T10:32:21.116Z,28.9
2017-05-29T10:33:39.783Z,28.9
2017-05-29T10:34:58.452Z,29
2017-05-29T10:36:17.183Z,29.2
2017-05-29T10:37:35.855Z,29.3
2017-05-29T10:38:54.562Z,29.4
2017-05-29T10:40:13.255Z,29.6
2017-05-29T10:41:31.942Z,29.6
2017-05-29T10:42:50.631Z,29.5
2017-05-29T10:44:09.336Z,29.5
2017-05-29T10:45:28.009Z,29.6
2017-05-29T10:46:46.681Z,29.6
2017-05-29T10:48:05.397Z,29.7
2017-05-29T10:49:24.101Z,29.9
2017-05-29T10:50:42.770Z,30
2017-05-29T10:52:01.450Z,30.1
2017-05-29T10:53:20.123Z,30.2
2017-05-29T10:54:38.802Z,30.3
2017-05-29T10:55:57.535Z,30.4
2017-05-29T10:57:16.210Z,30.4
2017-05-29T10:58:34.899Z,30.5
2017-05-29T10:59:53.619Z,30.7
2017-05-29T11:01:12.352Z,30.9
2017-05-29T11:02:31.042Z,31
2017-05-29T11:03:49.714Z,31
2017-05-29T11:05:08.377Z,30.9
2017-05-29T11:06:27.044Z,30.8
2017-05-29T11:07:45.762Z,30.8
2017-05-29T11:09:04.473Z,30.7
2017-05-29T11:10:23.146Z,30.7
2017-05-29T11:11:41.824Z,30.7
2017-05-29T11:13:00.551Z,30.6
2017-05-29T11:14:19.225Z,30.6
2017-05-29T11:15:37.892Z,30.8
2017-05-29T11:16:56.591Z,30.9
2017-05-29T11:18:15.276Z,31.1
2017-05-29T11:19:33.978Z,31.3
2017-05-29T11:20:52.666Z,31.6
2017-05-29T11:22:11.336Z,31.7
2017-05-29T11:23:30.024Z,31.7
2017-05-29T11:24:48.693Z,31.9
2017-05-29T11:26:07.398Z,32
2017-05-29T11:27:26.115Z,32
2017-05-29T11:28:44.823Z,32
2017-05-29T11:30:03.522Z,32.2
2017-05-29T11:31:22.199Z,32.2
2017-05-29T11:32:40.870Z,32.4
2017-05-29T11:33:59.580Z,32.4
2017-05-29T11:35:18.305Z,32.4
2017-05-29T11:36:36.978Z,32.7
2017-05-29T11:37:55.646Z,32.9
2017-05-29T11:39:14.343Z,33.1
2017-05-29T11:40:33.066Z,33.4
2017-05-29T11:41:51.740Z,33.6
2017-05-29T11:43:10.414Z,33.8
2017-05-29T11:44:29.169Z,33.6
2017-05-29T11:45:47.900Z,33.7
2017-05-29T11:47:06.597Z,33.9
2017-05-29T11:48:25.327Z,34
2017-05-29T11:49:44.043Z,34.4
2017-05-29T11:51:02.709Z,34.5
2017-05-29T11:52:21.438Z,34.7
2017-05-29T11:53:40.112Z,35.1
2017-05-29T11:54:58.818Z,35.6
2017-05-29T11:56:17.492Z,35.9
2017-05-29T11:57:36.158Z,36.2
2017-05-29T11:58:54.847Z,36.5
2017-05-29T12:00:13.585Z,36.7
2017-05-29T12:01:32.301Z,36.9
2017-05-29T12:02:50.998Z,37
2017-05-29T12:04:09.668Z,37
2017-05-29T12:05:28.345Z,37
2017-05-29T12:06:47.015Z,36.6
2017-05-29T12:08:05.681Z,36.7
2017-05-29T12:09:24.358Z,36.9
2017-05-29T12:10:43.072Z,36.9
2017-05-29T12:12:01.793Z,37.1
2017-05-29T12:13:20.458Z,37.1
2017-05-29T12:14:39.150Z,37.2
2017-05-29T12:15:57.845Z,37.3
2017-05-29T12:17:16.567Z,37.3
2017-05-29T12:18:35.266Z,37.3
2017-05-29T12:19:53.990Z,37.4
2017-05-29T12:21:12.712Z,37.4
2017-05-29T12:22:31.424Z,37.5
2017-05-29T12:23:50.100Z,37.5
2017-05-29T12:25:08.774Z,37.5
2017-05-29T12:26:27.475Z,37.4
2017-05-29T12:27:46.142Z,37.2
2017-05-29T12:29:04.830Z,37.2
2017-05-29T12:30:23.550Z,37.3
2017-05-29T12:31:42.240Z,37.4
2017-05-29T12:33:00.913Z,37.4
2017-05-29T12:34:19.577Z,37.5
2017-05-29T12:35:38.268Z,37.4
2017-05-29T12:36:56.940Z,37.5
2017-05-29T12:38:15.607Z,37.2
2017-05-29T12:39:34.279Z,37.2
2017-05-29T12:40:52.939Z,37.2
2017-05-29T12:42:11.628Z,37.2
2017-05-29T12:43:30.328Z,37.2
2017-05-29T12:44:49.029Z,37.1
2017-05-29T12:46:07.716Z,37.2
2017-05-29T12:47:26.453Z,37.1
2017-05-29T12:48:45.155Z,37.3
2017-05-29T12:50:03.873Z,37.5
2017-05-29T12:51:22.566Z,37.4
2017-05-29T12:52:41.248Z,37.1
2017-05-29T12:53:59.912Z,37.2
2017-05-29T12:55:18.607Z,37.2
2017-05-29T12:56:37.337Z,36.6
2017-05-29T12:57:56.012Z,36
2017-05-29T12:59:14.681Z,35.7
2017-05-29T13:00:33.354Z,35.9
2017-05-29T13:01:52.103Z,36.4
2017-05-29T13:03:10.833Z,36
2017-05-29T13:04:29.551Z,35.5
2017-05-29T13:05:48.222Z,35.2
2017-05-29T13:07:06.892Z,35
2017-05-29T13:08:25.570Z,34.9
2017-05-29T13:09:44.235Z,34.8
2017-05-29T13:11:02.906Z,34.8
2017-05-29T13:12:21.576Z,34.8
2017-05-29T13:13:40.279Z,34.7
2017-05-29T13:14:59.024Z,34.7
2017-05-29T13:16:17.684Z,34.6
2017-05-29T13:17:36.379Z,34.6
2017-05-29T13:18:55.077Z,34.6
2017-05-29T13:20:13.755Z,34.6
2017-05-29T13:21:32.444Z,34.7
2017-05-29T13:22:51.109Z,35.3
2017-05-29T13:24:09.834Z,36
2017-05-29T13:25:28.544Z,36.6
2017-05-29T13:26:47.214Z,37
2017-05-29T13:28:05.892Z,37.3
2017-05-29T13:29:24.597Z,37.5
2017-05-29T13:30:43.266Z,37.5
2017-05-29T13:32:01.935Z,37.6
2017-05-29T13:33:20.614Z,37.3
2017-05-29T13:34:39.312Z,36.6
2017-05-29T13:35:57.983Z,36.3
2017-05-29T13:37:16.645Z,36.1
2017-05-29T13:38:35.368Z,35.9
2017-05-29T13:39:54.096Z,35.6
2017-05-29T13:41:12.807Z,35.3
2017-05-29T13:42:31.466Z,35.4
2017-05-29T13:43:50.135Z,36.1
2017-05-29T13:45:08.826Z,36.4
2017-05-29T13:46:27.496Z,36.1
2017-05-29T13:47:46.181Z,35.7
2017-05-29T13:49:04.936Z,35.6
2017-05-29T13:50:23.626Z,35.4
2017-05-29T13:51:42.306Z,35.3
2017-05-29T13:53:01.002Z,35.4
2017-05-29T13:54:19.672Z,35.7
2017-05-29T13:55:38.359Z,35.5
2017-05-29T13:56:57.074Z,35.3
2017-05-29T13:58:15.790Z,35.2
2017-05-29T13:59:34.462Z,35
2017-05-29T14:00:53.151Z,34.8
2017-05-29T14:02:11.819Z,34.7
2017-05-29T14:03:30.499Z,34.7
2017-05-29T14:04:49.173Z,34.6
2017-05-29T14:06:07.855Z,34.5
2017-05-29T14:07:26.561Z,34.5
2017-05-29T14:08:45.286Z,34.9
2017-05-29T14:10:03.992Z,35.5
2017-05-29T14:11:22.692Z,36.1
2017-05-29T14:12:41.364Z,36.5
2017-05-29T14:14:00.028Z,36.8
2017-05-29T14:15:18.760Z,37.1
2017-05-29T14:16:37.453Z,37.2
2017-05-29T14:17:56.173Z,37.4
2017-05-29T14:19:14.858Z,37.4
2017-05-29T14:20:33.593Z,37.5
2017-05-29T14:21:52.325Z,37.5
2017-05-29T14:23:11.041Z,37.5
2017-05-29T14:24:29.732Z,37.5
2017-05-29T14:25:48.400Z,37.4
2017-05-29T14:27:07.117Z,37
2017-05-29T14:28:25.802Z,36.6
2017-05-29T14:29:44.487Z,36.3
2017-05-29T14:31:03.155Z,35.9
2017-05-29T14:32:21.832Z,35.5
2017-05-29T14:33:40.552Z,35.4
2017-05-29T14:34:59.222Z,35.3
2017-05-29T14:36:17.964Z,35.2
2017-05-29T14:37:36.641Z,35.2
2017-05-29T14:38:55.369Z,35.1
2017-05-29T14:40:14.063Z,35
2017-05-29T14:41:32.738Z,34.9
2017-05-29T14:42:51.474Z,34.8
2017-05-29T14:44:10.147Z,34.7
2017-05-29T14:45:28.837Z,34.6
2017-05-29T14:46:47.555Z,34.6
2017-05-29T14:48:06.234Z,34.5
2017-05-29T14:49:24.899Z,34.5
2017-05-29T14:50:43.570Z,34.5
2017-05-29T14:52:02.270Z,34.5
2017-05-29T14:53:20.950Z,34.4
2017-05-29T14:54:39.668Z,34.4
2017-05-29T14:55:58.332Z,34.4
2017-05-29T14:57:17.001Z,34.5
2017-05-29T14:58:35.684Z,34.5
2017-05-29T14:59:54.353Z,34.5
2017-05-29T15:01:13.020Z,34.5
2017-05-29T15:02:31.687Z,34.5
2017-05-29T15:03:50.438Z,34.5
2017-05-29T15:05:09.161Z,34.5
2017-05-29T15:06:27.872Z,34.5
2017-05-29T15:07:46.605Z,34.5
2017-05-29T15:09:05.327Z,34.5
2017-05-29T15:10:24.055Z,34.5
2017-05-29T15:11:42.724Z,34.5
2017-05-29T15:13:01.402Z,34.5
2017-05-29T15:14:20.109Z,34.5
2017-05-29T15:15:38.841Z,34.5
2017-05-29T15:16:57.561Z,34.5
2017-05-29T15:18:16.241Z,34.5
2017-05-29T15:19:34.928Z,34.4
2017-05-29T15:20:53.603Z,34.4
2017-05-29T15:22:12.338Z,34.4
2017-05-29T15:23:31.018Z,34.4
2017-05-29T15:24:49.767Z,34.4
2017-05-29T15:26:08.502Z,34.3
2017-05-29T15:27:27.177Z,34.3
2017-05-29T15:28:45.895Z,34.3
2017-05-29T15:30:04.569Z,34.3
2017-05-29T15:31:23.240Z,34.3
2017-05-29T15:32:41.959Z,34.3
2017-05-29T15:34:00.625Z,34.3
2017-05-29T15:35:19.342Z,34.3
2017-05-29T15:36:38.065Z,34.3
2017-05-29T15:37:56.781Z,34.2
2017-05-29T15:39:15.504Z,33.9
2017-05-29T15:40:34.196Z,33.8
2017-05-29T15:41:52.886Z,33.7
2017-05-29T15:43:11.591Z,33.8
2017-05-29T15:44:30.318Z,33.9
2017-05-29T15:45:49.041Z,33.8
2017-05-29T15:47:07.740Z,33.6
2017-05-29T15:48:26.405Z,33.4
2017-05-29T15:49:45.124Z,33.1
2017-05-29T15:51:03.813Z,32.7
2017-05-29T15:52:22.544Z,32.4
2017-05-29T15:53:41.216Z,32.2
2017-05-29T15:54:59.949Z,32
2017-05-29T15:56:18.685Z,34.4
2017-05-29T15:57:37.389Z,34.9
2017-05-29T15:58:56.088Z,35.3
2017-05-29T16:00:14.799Z,35.3
2017-05-29T16:01:33.506Z,34.9
2017-05-29T16:02:52.191Z,34.7
2017-05-29T16:04:10.898Z,34.5
2017-05-29T16:05:29.567Z,34.3
2017-05-29T16:06:48.246Z,33.9
2017-05-29T16:08:06.919Z,33.1
2017-05-29T16:09:25.586Z,32.6
2017-05-29T16:10:44.310Z,32.7
2017-05-29T16:12:03.006Z,33.6
2017-05-29T16:13:21.674Z,34.1
2017-05-29T16:14:40.339Z,34.3
2017-05-29T16:15:59.054Z,34.7
2017-05-29T16:17:17.732Z,35.2
2017-05-29T16:18:36.452Z,35.5
2017-05-29T16:19:55.116Z,35.5
2017-05-29T16:21:13.797Z,35.5
2017-05-29T16:22:32.486Z,35.7
2017-05-29T16:23:51.195Z,35.8
2017-05-29T16:25:09.904Z,35.8
2017-05-29T16:26:28.575Z,35.7
2017-05-29T16:27:47.291Z,35.8
2017-05-29T16:29:05.980Z,36
2017-05-29T16:30:24.647Z,35.9
2017-05-29T16:31:43.313Z,35.9
2017-05-29T16:33:01.988Z,36
2017-05-29T16:34:20.652Z,35.9
2017-05-29T16:35:39.329Z,35.9
2017-05-29T16:36:58.004Z,35.9
2017-05-29T16:38:16.738Z,35.8
2017-05-29T16:39:35.462Z,35.6
2017-05-29T16:40:54.142Z,35.3
2017-05-29T16:42:12.815Z,35.1
2017-05-29T16:43:31.515Z,34.9
2017-05-29T16:44:50.248Z,34.8
2017-05-29T16:46:08.992Z,34.7
2017-05-29T16:47:27.664Z,34.6
2017-05-29T16:48:46.343Z,34.6
2017-05-29T16:50:05.011Z,34.7
2017-05-29T16:51:23.693Z,34.7
2017-05-29T16:52:42.399Z,34.6
2017-05-29T16:54:01.071Z,34.5
2017-05-29T16:55:19.738Z,34.4
2017-05-29T16:56:38.408Z,34.4
2017-05-29T16:57:57.120Z,34.5
2017-05-29T16:59:15.812Z,34.5
2017-05-29T17:00:34.480Z,34.5
2017-05-29T17:01:53.149Z,34.6
2017-05-29T17:03:11.820Z,34.8
2017-05-29T17:04:30.493Z,34.8
2017-05-29T17:05:49.168Z,34.7
2017-05-29T17:07:07.855Z,34.6
2017-05-29T17:08:26.584Z,34.5
2017-05-29T17:09:45.328Z,34.4
2017-05-29T17:11:04.023Z,34.4
2017-05-29T17:12:22.694Z,34.5
2017-05-29T17:13:41.414Z,34.5
2017-05-29T17:15:00.112Z,34.4
2017-05-29T17:16:18.794Z,34.3
2017-05-29T17:17:37.461Z,34.2
2017-05-29T17:18:56.179Z,34.2
2017-05-29T17:20:14.868Z,34.4
2017-05-29T17:21:33.555Z,34.5
2017-05-29T17:22:52.217Z,34.6
2017-05-29T17:24:10.886Z,34.6
2017-05-29T17:25:29.618Z,34.8
2017-05-29T17:26:48.335Z,34.9
2017-05-29T17:28:06.999Z,34.7
2017-05-29T17:29:25.752Z,34.5
2017-05-29T17:30:44.476Z,34.4
2017-05-29T17:32:03.152Z,34.2
2017-05-29T17:33:21.822Z,33.5